Time;durP1;ratioP1;P1;durP2;ratioP2;P2;SDS_P1;SDS_P2;PMS_P1;PMS_P2;Temp;Humidity;BMP_temperature;BMP_pressure;BME280_temperature;BME280_humidity;BME280_pressure;Samples;Min_cycle;Max_cycle;Signal;HPM_P1;HPM_P2
2021/01/26 00:00:08;;;;;;;3.78;3.13;;;5.80;99.90;;;;;;5072219;28;20052;-75
2021/01/26 00:02:34;;;;;;;4.82;3.42;;;5.80;99.90;;;;;;5071815;28;20168;-74
2021/01/26 00:05:00;;;;;;;5.10;3.45;;;5.80;99.90;;;;;;5072541;28;20296;-75
2021/01/26 00:07:25;;;;;;;5.25;3.70;;;5.80;99.90;;;;;;5072622;28;20028;-75
2021/01/26 00:09:51;;;;;;;3.90;3.20;;;5.80;99.90;;;;;;5072577;28;20039;-75
2021/01/26 00:12:17;;;;;;;5.18;3.88;;;5.80;99.90;;;;;;5072216;28;20056;-75
2021/01/26 00:14:42;;;;;;;4.55;3.33;;;5.80;99.90;;;;;;5071860;28;20169;-75
2021/01/26 00:17:08;;;;;;;3.67;2.97;;;5.80;99.90;;;;;;5072327;28;20029;-73
2021/01/26 00:19:34;;;;;;;5.57;3.25;;;5.80;99.90;;;;;;5072205;28;20409;-75
2021/01/26 00:21:59;;;;;;;5.00;3.65;;;5.70;99.90;;;;;;5054024;28;20017;-72
2021/01/26 00:24:25;;;;;;;3.60;3.25;;;5.70;99.90;;;;;;5072051;28;20107;-76
2021/01/26 00:26:51;;;;;;;4.00;3.58;;;5.70;99.90;;;;;;5071786;28;20068;-76
2021/01/26 00:29:17;;;;;;;4.82;3.30;;;5.70;99.90;;;;;;5071874;28;20028;-72
2021/01/26 00:31:42;;;;;;;4.13;3.40;;;5.70;99.90;;;;;;5071522;28;20076;-76
2021/01/26 00:34:08;;;;;;;5.38;3.33;;;5.70;99.90;;;;;;5070631;28;20019;-76
2021/01/26 00:36:33;;;;;;;5.90;3.55;;;5.70;99.90;;;;;;5070211;28;20064;-75
2021/01/26 00:38:59;;;;;;;5.65;4.10;;;5.70;99.90;;;;;;5071830;28;20569;-72
2021/01/26 00:41:25;;;;;;;7.72;4.47;;;5.70;99.90;;;;;;5053850;28;20103;-72
2021/01/26 00:43:50;;;;;;;9.18;4.88;;;5.70;99.90;;;;;;5071719;28;20032;-72
2021/01/26 00:46:16;;;;;;;5.13;3.60;;;5.70;99.90;;;;;;5072127;28;20024;-71
2021/01/26 00:48:42;;;;;;;5.68;4.57;;;5.70;99.90;;;;;;5070898;28;20024;-72
2021/01/26 00:51:08;;;;;;;5.25;3.88;;;5.70;99.90;;;;;;5071663;28;20045;-72
2021/01/26 00:53:35;;;;;;;6.90;4.50;;;5.70;99.90;;;;;;5071407;28;20024;-73
2021/01/26 00:56:01;;;;;;;6.72;4.53;;;5.70;99.90;;;;;;5071643;28;20032;-73
2021/01/26 00:58:27;;;;;;;6.45;4.22;;;5.70;99.90;;;;;;5071702;28;20036;-73
2021/01/26 01:00:52;;;;;;;7.90;5.00;;;5.70;99.90;;;;;;5071165;28;20024;-72
2021/01/26 01:03:18;;;;;;;6.18;3.88;;;5.70;99.90;;;;;;5053365;28;20020;-73
2021/01/26 01:05:44;;;;;;;6.25;4.45;;;5.70;99.90;;;;;;5071302;28;20386;-72
2021/01/26 01:08:09;;;;;;;6.72;4.85;;;5.70;99.90;;;;;;5071383;28;20059;-72
2021/01/26 01:10:36;;;;;;;4.93;4.03;;;5.70;99.90;;;;;;5070832;28;20090;-74
2021/01/26 01:13:03;;;;;;;6.10;4.35;;;5.70;99.90;;;;;;5071092;28;20020;-71
2021/01/26 01:15:29;;;;;;;6.70;4.57;;;5.60;99.90;;;;;;5070344;28;20024;-72
2021/01/26 01:17:55;;;;;;;7.15;4.40;;;5.60;99.90;;;;;;5071310;28;20033;-74
2021/01/26 01:20:22;;;;;;;9.52;5.95;;;5.60;99.90;;;;;;5071126;28;20024;-71
2021/01/26 01:22:48;;;;;;;7.05;5.28;;;5.60;99.90;;;;;;5071165;28;20036;-74
2021/01/26 01:25:15;;;;;;;7.70;5.10;;;5.60;99.90;;;;;;5071516;28;20401;-75
2021/01/26 01:27:41;;;;;;;6.72;4.85;;;5.60;99.90;;;;;;5071289;28;20074;-74
2021/01/26 01:30:09;;;;;;;7.43;5.35;;;5.60;99.90;;;;;;5071602;28;20127;-75
2021/01/26 01:32:35;;;;;;;15.90;10.27;;;5.60;99.90;;;;;;5070235;28;20024;-73
2021/01/26 01:35:01;;;;;;;12.32;7.20;;;5.60;99.90;;;;;;5068912;28;20043;-74
2021/01/26 01:37:27;;;;;;;12.27;7.13;;;5.60;99.90;;;;;;5069581;28;20415;-74
2021/01/26 01:39:53;;;;;;;9.90;6.35;;;5.60;99.90;;;;;;5071034;28;20027;-74
2021/01/26 01:42:18;;;;;;;9.93;6.72;;;5.60;99.90;;;;;;5070469;28;20095;-74
2021/01/26 01:44:44;;;;;;;10.90;6.72;;;5.60;99.90;;;;;;5070828;28;20540;-71
2021/01/26 01:47:18;;;;;;;9.77;6.18;;;5.50;99.90;;;;;;5070782;28;20021;-75
2021/01/26 01:49:46;;;;;;;9.60;6.28;;;5.50;99.90;;;;;;5071046;28;20031;-75
2021/01/26 01:52:24;;;;;;;13.05;9.70;;;5.50;99.90;;;;;;5074481;28;20218;-75
2021/01/26 01:55:04;;;;;;;11.77;7.47;;;5.50;99.90;;;;;;5074786;28;20462;-75
2021/01/26 01:57:34;;;;;;;9.90;6.65;;;5.50;99.90;;;;;;5074523;28;20090;-73
2021/01/26 02:00:06;;;;;;;13.02;8.35;;;5.50;99.90;;;;;;5056639;28;20693;-73
2021/01/26 02:02:32;;;;;;;11.43;7.35;;;5.40;99.90;;;;;;5055095;28;20029;-73
2021/01/26 02:05:01;;;;;;;11.50;8.35;;;5.40;99.90;;;;;;5074946;28;20138;-75
2021/01/26 02:07:28;;;;;;;15.98;6.53;;;5.30;99.90;;;;;;5074961;28;20436;-76
2021/01/26 02:09:54;;;;;;;11.10;7.63;;;5.30;99.90;;;;;;5074590;28;20539;-74
2021/01/26 02:12:19;;;;;;;11.73;7.97;;;5.30;99.90;;;;;;5074600;28;20025;-73
2021/01/26 02:14:52;;;;;;;10.57;6.75;;;5.30;99.90;;;;;;5075023;28;20024;-72
2021/01/26 02:17:30;;;;;;;11.15;6.78;;;5.30;99.90;;;;;;5073975;28;20063;-74
2021/01/26 02:20:32;;;;;;;15.45;7.75;;;5.30;99.90;;;;;;5074838;28;20020;-72
2021/01/26 02:23:26;;;;;;;10.38;7.20;;;5.20;99.90;;;;;;5074439;28;20031;-74
2021/01/26 02:26:04;;;;;;;12.65;8.00;;;5.20;99.90;;;;;;5074364;28;20126;-74
2021/01/26 02:28:42;;;;;;;14.63;9.50;;;5.20;99.90;;;;;;5074574;28;20749;-75
2021/01/26 02:31:38;;;;;;;12.57;7.65;;;5.10;99.90;;;;;;5074340;28;20039;-75
2021/01/26 02:34:22;;;;;;;10.63;6.40;;;5.20;99.90;;;;;;5056152;28;20023;-75
2021/01/26 02:37:08;;;;;;;10.57;6.20;;;5.10;99.90;;;;;;5060905;28;20037;-75
2021/01/26 02:39:43;;;;;;;11.82;7.25;;;5.00;99.90;;;;;;5074361;28;20024;-75
2021/01/26 02:42:33;;;;;;;12.82;7.78;;;5.00;99.90;;;;;;5074116;28;20025;-75
2021/01/26 02:45:17;;;;;;;9.13;6.60;;;5.00;99.90;;;;;;5074360;28;20021;-74
2021/01/26 02:48:32;;;;;;;10.32;6.03;;;5.00;99.90;;;;;;5074240;28;20028;-75
2021/01/26 02:51:00;;;;;;;11.85;6.50;;;5.00;99.90;;;;;;5065173;28;20119;-73
2021/01/26 02:53:42;;;;;;;7.68;5.65;;;5.00;99.90;;;;;;5073818;28;20020;-75
2021/01/26 02:56:36;;;;;;;11.43;6.32;;;5.00;99.90;;;;;;5056106;28;20028;-75
2021/01/26 02:59:32;;;;;;;10.60;6.18;;;5.00;99.90;;;;;;5073739;28;20024;-76
2021/01/26 03:02:15;;;;;;;9.20;6.80;;;5.00;99.90;;;;;;5071194;28;20024;-75
2021/01/26 03:04:59;;;;;;;11.93;6.30;;;4.90;99.90;;;;;;5056238;28;20129;-75
2021/01/26 03:07:29;;;;;;;10.20;6.35;;;4.90;99.90;;;;;;5073988;28;20733;-74
2021/01/26 03:10:00;;;;;;;10.45;6.40;;;4.90;99.90;;;;;;5073515;28;20029;-76
2021/01/26 03:12:31;;;;;;;9.13;6.07;;;4.90;99.90;;;;;;5073298;28;20023;-73
2021/01/26 03:15:13;;;;;;;7.07;5.43;;;4.90;99.90;;;;;;5073487;28;20055;-74
2021/01/26 03:17:44;;;;;;;9.47;6.23;;;4.90;99.90;;;;;;5049341;28;20524;-73
2021/01/26 03:20:31;;;;;;;7.57;6.00;;;4.90;99.90;;;;;;5066174;28;20699;-75
2021/01/26 03:23:02;;;;;;;8.30;5.40;;;4.90;99.90;;;;;;5068965;28;20024;-74
2021/01/26 03:25:30;;;;;;;9.30;5.75;;;4.80;99.90;;;;;;5054941;28;20169;-75
2021/01/26 03:28:00;;;;;;;6.25;4.95;;;4.80;99.90;;;;;;5073590;28;20036;-75
2021/01/26 03:30:33;;;;;;;8.02;5.25;;;4.80;99.90;;;;;;5055474;28;20032;-76
2021/01/26 03:33:14;;;;;;;9.93;6.10;;;4.80;99.90;;;;;;5073377;28;20106;-75
2021/01/26 03:35:41;;;;;;;10.15;6.07;;;4.80;99.90;;;;;;5072339;28;20020;-74
2021/01/26 03:38:32;;;;;;;8.48;6.03;;;4.70;99.90;;;;;;5072867;28;20020;-75
2021/01/26 03:41:00;;;;;;;9.43;6.65;;;4.70;99.90;;;;;;5073081;28;20029;-72
2021/01/26 03:43:27;;;;;;;9.50;6.75;;;4.70;99.90;;;;;;5073251;28;20029;-75
2021/01/26 03:46:26;;;;;;;10.63;6.50;;;4.70;99.90;;;;;;5072754;28;20043;-75
2021/01/26 03:48:58;;;;;;;11.20;6.60;;;4.70;99.90;;;;;;5064010;28;20142;-72
2021/01/26 03:51:29;;;;;;;8.35;6.47;;;4.60;99.90;;;;;;5071924;28;20048;-75
2021/01/26 03:54:10;;;;;;;8.88;5.68;;;4.60;99.90;;;;;;5054460;28;20498;-75
2021/01/26 03:57:05;;;;;;;9.52;5.82;;;4.60;99.90;;;;;;5071747;28;20404;-76
2021/01/26 03:59:39;;;;;;;8.73;6.20;;;4.60;99.90;;;;;;5067015;28;20115;-75
2021/01/26 04:02:33;;;;;;;9.18;6.65;;;4.60;99.90;;;;;;5072525;28;20461;-76
2021/01/26 04:05:26;;;;;;;10.35;6.45;;;4.60;99.90;;;;;;5061546;28;20075;-75
2021/01/26 04:08:07;;;;;;;11.50;6.45;;;4.60;99.90;;;;;;5071633;28;20040;-76
2021/01/26 04:10:39;;;;;;;9.13;5.75;;;4.60;99.90;;;;;;5070293;28;20029;-72
2021/01/26 04:13:12;;;;;;;9.38;6.72;;;4.60;99.90;;;;;;5071547;28;20116;-74
2021/01/26 04:15:52;;;;;;;9.73;5.60;;;4.50;99.90;;;;;;5072021;28;20028;-74
2021/01/26 04:18:24;;;;;;;9.57;5.70;;;4.50;99.90;;;;;;5072335;28;20033;-72
2021/01/26 04:20:50;;;;;;;10.10;6.53;;;4.50;99.90;;;;;;5071890;28;20021;-72
2021/01/26 04:23:16;;;;;;;7.68;5.18;;;4.40;99.90;;;;;;5072409;28;20039;-75
2021/01/26 04:25:48;;;;;;;8.13;5.88;;;4.30;99.90;;;;;;5072313;28;20020;-73
2021/01/26 04:28:49;;;;;;;8.45;6.32;;;4.30;99.90;;;;;;5072209;28;20362;-73
2021/01/26 04:31:16;;;;;;;6.97;5.10;;;4.30;99.90;;;;;;4989893;28;20042;-72
2021/01/26 04:33:43;;;;;;;9.77;5.95;;;4.30;99.90;;;;;;5056121;28;20047;-74
2021/01/26 04:36:14;;;;;;;7.88;5.40;;;4.30;99.90;;;;;;5071347;28;20024;-74
2021/01/26 04:38:40;;;;;;;10.27;5.07;;;4.20;99.90;;;;;;5071923;28;20029;-75
2021/01/26 04:41:11;;;;;;;10.15;5.00;;;4.20;99.90;;;;;;5071791;28;20820;-74
2021/01/26 04:43:57;;;;;;;7.88;5.75;;;4.20;99.90;;;;;;5071300;28;20532;-73
2021/01/26 04:46:41;;;;;;;10.20;5.88;;;4.20;99.90;;;;;;5070345;28;20724;-74
2021/01/26 04:49:38;;;;;;;7.05;5.30;;;4.20;99.90;;;;;;5071660;28;20039;-75
2021/01/26 04:52:26;;;;;;;9.85;5.50;;;4.10;99.90;;;;;;5034604;28;20116;-75
2021/01/26 04:55:00;;;;;;;8.90;6.55;;;4.10;99.90;;;;;;5051464;28;20043;-72
2021/01/26 04:57:36;;;;;;;12.18;6.43;;;4.10;99.90;;;;;;5071355;28;20583;-75
2021/01/26 05:00:28;;;;;;;9.85;6.07;;;4.00;99.90;;;;;;5071474;28;20053;-73
2021/01/26 05:03:12;;;;;;;;;;;4.00;99.90;;;;;;5070640;28;20028;-72
2021/01/26 05:05:45;;;;;;;11.10;6.50;;;4.00;99.90;;;;;;5071571;28;20337;-76
2021/01/26 05:08:28;;;;;;;9.85;6.70;;;4.00;99.90;;;;;;5070072;28;20234;-76
2021/01/26 05:11:22;;;;;;;12.27;7.00;;;4.00;99.90;;;;;;5071660;28;20024;-72
2021/01/26 05:13:55;;;;;;;9.25;6.47;;;4.00;99.90;;;;;;5065780;28;20529;-72
2021/01/26 05:16:27;;;;;;;8.35;6.63;;;4.00;99.90;;;;;;5071034;28;20037;-75
2021/01/26 05:19:14;;;;;;;9.82;6.43;;;4.00;99.90;;;;;;5070431;28;20017;-73
2021/01/26 05:21:43;;;;;;;9.02;6.40;;;4.00;99.90;;;;;;5071015;28;20048;-73
2021/01/26 05:24:32;;;;;;;13.25;6.68;;;4.00;99.90;;;;;;5070924;28;20105;-73
2021/01/26 05:27:00;;;;;;;9.32;6.90;;;4.00;99.90;;;;;;5055923;28;20041;-73
2021/01/26 05:29:26;;;;;;;10.13;7.20;;;4.00;99.90;;;;;;5070836;28;20021;-73
2021/01/26 05:31:58;;;;;;;11.60;7.50;;;4.00;99.90;;;;;;5070514;28;20090;-75
2021/01/26 05:34:24;;;;;;;;;;;4.00;99.90;;;;;;5071488;28;20025;-74
2021/01/26 05:36:51;;;;;;;11.13;7.55;;;3.90;99.90;;;;;;5071049;28;20363;-75
2021/01/26 05:39:24;;;;;;;13.35;8.70;;;3.90;99.90;;;;;;5071342;28;20381;-71
2021/01/26 05:41:49;;;;;;;11.50;8.20;;;4.00;99.90;;;;;;5068623;28;20029;-74
2021/01/26 05:44:17;;;;;;;9.18;6.97;;;4.00;99.90;;;;;;5069960;28;20421;-73
2021/01/26 05:46:45;;;;;;;12.25;8.30;;;3.90;99.90;;;;;;5070059;28;20068;-74
2021/01/26 05:49:11;;;;;;;9.52;6.88;;;3.90;99.90;;;;;;5070364;28;20389;-74
2021/01/26 05:51:40;;;;;;;13.15;7.95;;;3.90;99.90;;;;;;5067623;28;20048;-75
2021/01/26 05:54:13;;;;;;;11.23;7.35;;;3.90;99.90;;;;;;5070506;28;20142;-74
2021/01/26 05:56:51;;;;;;;9.57;6.55;;;3.80;99.90;;;;;;5070451;28;20064;-74
2021/01/26 05:59:32;;;;;;;10.57;7.05;;;3.80;99.90;;;;;;5070373;28;20013;-74
2021/01/26 06:02:16;;;;;;;12.35;7.07;;;3.80;99.90;;;;;;5070692;28;20029;-74
2021/01/26 06:04:43;;;;;;;10.23;6.05;;;3.70;99.90;;;;;;5071113;28;20043;-73
2021/01/26 06:07:24;;;;;;;10.50;6.22;;;3.80;99.90;;;;;;5070775;28;20036;-76
2021/01/26 06:09:51;;;;;;;9.60;6.83;;;3.80;99.90;;;;;;5070301;28;20032;-72
2021/01/26 06:12:27;;;;;;;8.68;5.97;;;3.80;99.90;;;;;;5070099;28;20269;-75
2021/01/26 06:14:56;;;;;;;8.50;5.60;;;3.70;99.90;;;;;;5070944;28;20444;-76
2021/01/26 06:17:30;;;;;;;10.32;5.85;;;3.70;99.90;;;;;;5070135;28;20032;-74
2021/01/26 06:20:13;;;;;;;14.75;6.90;;;3.70;99.90;;;;;;5070254;28;20469;-76
2021/01/26 06:22:39;;;;;;;9.65;6.00;;;3.70;99.90;;;;;;5070489;28;20032;-77
2021/01/26 06:25:11;;;;;;;11.73;6.82;;;3.70;99.90;;;;;;5070361;28;20365;-73
2021/01/26 06:27:40;;;;;;;10.05;6.82;;;3.70;99.90;;;;;;5070761;28;20017;-73
2021/01/26 06:30:15;;;;;;;16.80;6.65;;;3.70;99.90;;;;;;5070948;28;20070;-71
2021/01/26 06:32:40;;;;;;;12.65;7.18;;;3.70;99.90;;;;;;5070207;28;20051;-74
2021/01/26 06:35:18;;;;;;;16.05;7.35;;;3.70;99.90;;;;;;5070072;28;20488;-75
2021/01/26 06:38:13;;;;;;;9.20;6.78;;;3.70;99.90;;;;;;5071932;28;20081;-75
2021/01/26 06:40:56;;;;;;;9.80;6.70;;;3.70;99.90;;;;;;5073528;28;20384;-75
2021/01/26 06:43:29;;;;;;;10.93;7.32;;;3.70;99.90;;;;;;5073273;28;20100;-75
2021/01/26 06:46:26;;;;;;;11.82;7.32;;;3.70;99.90;;;;;;5074035;28;20025;-77
2021/01/26 06:49:24;;;;;;;11.20;7.47;;;3.80;99.90;;;;;;5074531;28;20473;-77
2021/01/26 06:52:17;;;;;;;12.82;8.20;;;3.80;99.90;;;;;;5032352;28;20048;-73
2021/01/26 06:55:08;;;;;;;17.40;7.75;;;3.80;99.90;;;;;;5033600;28;20412;-77
2021/01/26 06:58:03;;;;;;;13.23;8.02;;;3.80;99.90;;;;;;5068780;28;20071;-76
2021/01/26 07:00:47;;;;;;;14.82;7.18;;;3.90;99.90;;;;;;5047138;28;20035;-77
2021/01/26 07:03:24;;;;;;;13.77;7.22;;;4.30;99.90;;;;;;5072155;28;20032;-76
2021/01/26 07:06:10;;;;;;;10.60;6.82;;;4.70;99.90;;;;;;5071392;28;20061;-75
2021/01/26 07:08:38;;;;;;;8.15;6.43;;;5.20;99.90;;;;;;5072838;28;20048;-74
2021/01/26 07:11:30;;;;;;;8.50;6.25;;;5.60;99.90;;;;;;5055257;28;20564;-72
2021/01/26 07:14:26;;;;;;;13.20;7.45;;;5.90;99.90;;;;;;5069628;28;20532;-72
2021/01/26 07:16:53;;;;;;;10.38;6.75;;;6.20;99.90;;;;;;5073095;28;20036;-72
2021/01/26 07:19:57;;;;;;;15.65;8.48;;;6.60;99.90;;;;;;5073733;28;20024;-72
2021/01/26 07:22:50;;;;;;;17.70;8.63;;;6.90;99.90;;;;;;5072494;28;20013;-72
2021/01/26 07:25:42;;;;;;;12.73;7.47;;;7.10;99.90;;;;;;5071529;28;20074;-73
2021/01/26 07:28:32;;;;;;;9.98;6.18;;;7.30;99.90;;;;;;5068681;28;20132;-72
2021/01/26 07:31:07;;;;;;;15.20;7.80;;;7.70;99.90;;;;;;5062547;28;20194;-72
2021/01/26 07:33:32;;;;;;;12.23;6.80;;;8.10;99.90;;;;;;5054500;28;20016;-71
2021/01/26 07:36:20;;;;;;;10.95;6.75;;;8.30;99.90;;;;;;5071801;28;20032;-71
2021/01/26 07:38:59;;;;;;;10.63;6.47;;;8.40;99.90;;;;;;5072318;28;20488;-75
2021/01/26 07:41:40;;;;;;;10.35;6.75;;;8.40;99.90;;;;;;5073140;28;20013;-71
2021/01/26 07:44:14;;;;;;;12.93;6.18;;;8.40;99.90;;;;;;5073145;28;20326;-74
2021/01/26 07:47:02;;;;;;;10.40;6.32;;;8.60;99.90;;;;;;5073133;28;20024;-74
2021/01/26 07:49:40;;;;;;;23.45;7.05;;;8.70;99.90;;;;;;5060950;28;20103;-73
2021/01/26 07:52:07;;;;;;;20.20;8.50;;;9.00;99.90;;;;;;5072653;28;20414;-72
2021/01/26 07:54:43;;;;;;;12.10;7.32;;;9.50;99.90;;;;;;5071338;28;20373;-72
2021/01/26 07:57:10;;;;;;;9.85;6.65;;;9.80;99.90;;;;;;5072244;28;20032;-72
2021/01/26 07:59:44;;;;;;;9.35;6.40;;;10.00;99.90;;;;;;5072538;28;20020;-75
2021/01/26 08:02:32;;;;;;;11.95;5.97;;;10.40;99.90;;;;;;5071544;28;20028;-72
2021/01/26 08:04:57;;;;;;;19.73;6.15;;;10.70;99.90;;;;;;5066973;28;20024;-75
2021/01/26 08:07:31;;;;;;;10.50;6.35;;;11.00;99.90;;;;;;5068103;28;20016;-77
2021/01/26 08:10:02;;;;;;;8.13;5.45;;;11.30;99.90;;;;;;5067195;28;21216;-76
2021/01/26 08:12:28;;;;;;;9.93;5.40;;;11.50;99.90;;;;;;5070561;28;20020;-73
2021/01/26 08:14:56;;;;;;;10.77;5.57;;;11.50;99.90;;;;;;5071795;28;20023;-72
2021/01/26 08:17:33;;;;;;;9.02;5.18;;;12.10;99.90;;;;;;5072027;28;20044;-72
2021/01/26 08:20:33;;;;;;;10.57;5.25;;;12.50;99.90;;;;;;5070004;28;20497;-72
2021/01/26 08:23:10;;;;;;;6.32;4.38;;;12.90;99.90;;;;;;5058755;28;20052;-76
2021/01/26 08:25:39;;;;;;;6.20;4.38;;;13.50;98.80;;;;;;5072427;28;20016;-71
2021/01/26 08:28:08;;;;;;;9.30;4.45;;;13.60;98.30;;;;;;5069594;28;20410;-72
2021/01/26 08:30:49;;;;;;;9.23;4.63;;;13.90;97.50;;;;;;5069626;28;20073;-76
2021/01/26 08:33:20;;;;;;;7.57;5.25;;;14.00;95.90;;;;;;5071559;28;20020;-72
2021/01/26 08:36:08;;;;;;;7.30;4.60;;;14.00;95.90;;;;;;5054478;28;20388;-75
2021/01/26 08:38:55;;;;;;;7.65;5.00;;;14.30;95.60;;;;;;5072101;28;20428;-74
2021/01/26 08:41:40;;;;;;;10.27;4.20;;;14.70;95.00;;;;;;5064185;28;20028;-72
2021/01/26 08:44:08;;;;;;;11.70;5.25;;;15.30;93.20;;;;;;5069568;28;20025;-75
2021/01/26 08:46:54;;;;;;;8.65;5.55;;;15.40;92.60;;;;;;5071645;28;20024;-72
2021/01/26 08:49:24;;;;;;;8.25;4.78;;;15.60;92.10;;;;;;5069936;28;20074;-72
2021/01/26 08:51:51;;;;;;;8.35;5.00;;;15.70;91.50;;;;;;5071763;28;20063;-76
2021/01/26 08:54:43;;;;;;;9.23;5.15;;;15.40;91.20;;;;;;5053771;28;20032;-77
2021/01/26 08:57:42;;;;;;;;;;;15.20;91.30;;;;;;5072448;28;20119;-77
2021/01/26 09:00:14;;;;;;;9.82;4.25;;;15.00;91.20;;;;;;5013602;28;20258;-77
2021/01/26 09:02:40;;;;;;;21.33;6.20;;;15.30;90.80;;;;;;5071804;28;20031;-74
2021/01/26 09:05:08;;;;;;;11.32;5.30;;;15.70;91.50;;;;;;5072334;28;20488;-76
2021/01/26 09:07:53;;;;;;;15.07;5.05;;;16.10;90.20;;;;;;5071878;28;20057;-76
2021/01/26 09:10:21;;;;;;;8.30;5.43;;;16.70;88.40;;;;;;5071770;28;20099;-76
2021/01/26 09:12:49;;;;;;;9.85;5.85;;;17.30;86.30;;;;;;5071049;28;20029;-76
2021/01/26 09:15:16;;;;;;;11.57;5.53;;;17.40;85.60;;;;;;5068917;28;20066;-75
2021/01/26 09:17:42;;;;;;;10.07;4.95;;;17.80;84.30;;;;;;5071189;28;20452;-75
2021/01/26 09:20:16;;;;;;;7.45;5.10;;;18.10;82.70;;;;;;5071372;28;20028;-73
2021/01/26 09:22:42;;;;;;;14.45;5.97;;;18.50;81.90;;;;;;5071708;28;20033;-76
2021/01/26 09:25:17;;;;;;;8.65;5.43;;;18.90;80.10;;;;;;5070714;28;20017;-74
2021/01/26 09:27:54;;;;;;;8.77;5.40;;;19.50;77.10;;;;;;5070835;28;20077;-76
2021/01/26 09:30:25;;;;;;;15.90;5.03;;;19.40;76.00;;;;;;5071310;28;20539;-76
2021/01/26 09:32:57;;;;;;;8.67;5.00;;;19.60;75.90;;;;;;5052925;28;20024;-75
2021/01/26 09:35:39;;;;;;;7.57;4.25;;;20.30;73.10;;;;;;5068594;28;20036;-76
2021/01/26 09:38:34;;;;;;;13.23;5.30;;;21.20;71.50;;;;;;5069131;28;20039;-77
2021/01/26 09:41:14;;;;;;;11.70;4.65;;;22.20;68.90;;;;;;5069359;28;20017;-77
2021/01/26 09:43:51;;;;;;;11.07;4.43;;;22.80;66.70;;;;;;5070317;28;20103;-73
2021/01/26 09:46:36;;;;;;;14.45;4.90;;;22.90;65.00;;;;;;5070120;28;20127;-76
2021/01/26 09:49:26;;;;;;;10.75;5.10;;;22.80;64.80;;;;;;5069934;28;20485;-74
2021/01/26 09:52:02;;;;;;;17.52;5.13;;;22.90;64.20;;;;;;5067787;28;20493;-73
2021/01/26 09:54:32;;;;;;;14.30;5.28;;;23.30;64.10;;;;;;5069921;28;20036;-73
2021/01/26 09:57:00;;;;;;;21.15;5.38;;;23.60;62.40;;;;;;5069795;28;20036;-72
2021/01/26 09:59:28;;;;;;;9.73;4.90;;;23.80;61.40;;;;;;5069474;28;20017;-77
2021/01/26 10:01:55;;;;;;;17.10;6.35;;;24.40;59.90;;;;;;5069646;28;20047;-73
2021/01/26 10:04:23;;;;;;;12.40;5.40;;;24.70;59.30;;;;;;5069781;28;20128;-72
2021/01/26 10:06:51;;;;;;;10.32;5.63;;;24.90;58.80;;;;;;5067764;28;20066;-71
2021/01/26 10:09:33;;;;;;;13.57;5.15;;;24.90;57.70;;;;;;5069807;28;20487;-71
2021/01/26 10:12:24;;;;;;;12.50;5.70;;;25.10;57.30;;;;;;5066477;28;20119;-75
2021/01/26 10:15:06;;;;;;;;;;;25.60;56.20;;;;;;5071488;28;20030;-77
2021/01/26 10:17:39;;;;;;;23.13;5.85;;;25.90;55.40;;;;;;5072501;28;19912;-76
2021/01/26 10:20:06;;;;;;;18.65;5.05;;;26.00;55.10;;;;;;5056174;28;20456;-72
2021/01/26 10:22:31;;;;;;;19.27;5.00;;;26.00;54.60;;;;;;5069363;28;20020;-78
2021/01/26 10:25:09;;;;;;;7.68;3.75;;;26.50;54.20;;;;;;5076765;28;20017;-74
2021/01/26 10:27:37;;;;;;;9.57;4.68;;;27.10;53.00;;;;;;5073592;28;21569;-78
2021/01/26 10:30:16;;;;;;;7.60;4.30;;;27.80;51.80;;;;;;5070220;28;20029;-72
2021/01/26 10:32:49;;;;;;;4.97;3.67;;;28.10;51.20;;;;;;5073488;28;20061;-73
2021/01/26 10:35:36;;;;;;;12.52;4.13;;;28.70;49.30;;;;;;5072452;28;20057;-72
2021/01/26 10:38:24;;;;;;;8.90;4.68;;;28.00;49.40;;;;;;5073137;28;20596;-73
2021/01/26 10:41:05;;;;;;;5.90;3.85;;;27.90;48.60;;;;;;5052680;28;20116;-73
2021/01/26 10:43:31;;;;;;;7.43;4.40;;;27.70;50.00;;;;;;5073691;28;20024;-72
2021/01/26 10:45:56;;;;;;;4.78;3.88;;;28.20;47.90;;;;;;5073117;28;20023;-73
2021/01/26 10:48:32;;;;;;;9.48;5.03;;;28.70;47.80;;;;;;5071467;28;20021;-73
2021/01/26 10:51:37;;;;;;;12.93;5.65;;;29.80;46.70;;;;;;5070823;28;20068;-73
2021/01/26 10:54:06;;;;;;;14.25;5.38;;;29.90;46.80;;;;;;4972162;28;20042;-73
2021/01/26 10:56:31;;;;;;;9.68;4.68;;;29.80;46.50;;;;;;4973122;28;20452;-73
2021/01/26 10:58:57;;;;;;;14.00;3.70;;;28.90;46.90;;;;;;5020304;28;20059;-74
2021/01/26 11:01:23;;;;;;;5.63;3.20;;;27.80;47.70;;;;;;5072521;28;20016;-72
2021/01/26 11:03:50;;;;;;;10.80;3.63;;;27.60;48.30;;;;;;5072345;28;20043;-72
2021/01/26 11:06:17;;;;;;;10.30;3.53;;;27.20;48.50;;;;;;5070753;28;20472;-75
2021/01/26 11:08:43;;;;;;;7.75;3.55;;;26.80;48.10;;;;;;5054311;28;20125;-72
2021/01/26 11:11:21;;;;;;;9.02;3.45;;;26.60;49.40;;;;;;5069570;28;20104;-73
2021/01/26 11:13:47;;;;;;;3.95;2.83;;;26.50;50.60;;;;;;5071869;28;20065;-76
2021/01/26 11:16:13;;;;;;;10.85;3.08;;;26.30;51.10;;;;;;5072032;28;20384;-74
2021/01/26 11:18:39;;;;;;;5.47;3.30;;;26.10;51.60;;;;;;5068409;28;20536;-72
2021/01/26 11:21:05;;;;;;;5.90;3.30;;;25.30;52.60;;;;;;5073646;28;20108;-73
2021/01/26 11:23:31;;;;;;;3.85;3.00;;;24.30;53.40;;;;;;5072361;28;20558;-73
2021/01/26 11:25:56;;;;;;;6.63;3.50;;;23.40;54.80;;;;;;5073785;28;20118;-74
2021/01/26 11:28:22;;;;;;;9.80;3.75;;;22.90;55.20;;;;;;5072997;28;20082;-72
2021/01/26 11:30:48;;;;;;;3.90;3.03;;;22.30;56.60;;;;;;5071419;28;20074;-75
2021/01/26 11:33:14;;;;;;;6.18;2.90;;;22.10;56.50;;;;;;5072964;28;20056;-72
2021/01/26 11:35:39;;;;;;;9.20;3.00;;;22.30;56.60;;;;;;5072205;28;20024;-72
2021/01/26 11:38:05;;;;;;;12.65;3.30;;;22.80;55.90;;;;;;5072504;28;20532;-72
2021/01/26 11:40:31;;;;;;;8.02;3.05;;;23.20;55.00;;;;;;5071970;28;20020;-73
2021/01/26 11:42:57;;;;;;;7.13;3.38;;;22.70;55.20;;;;;;5071988;28;20028;-71
2021/01/26 11:45:31;;;;;;;4.55;2.90;;;21.80;55.50;;;;;;5072395;28;20166;-70
2021/01/26 11:47:58;;;;;;;6.18;4.32;;;20.50;58.50;;;;;;5071938;28;20036;-72
2021/01/26 11:50:23;;;;;;;12.82;4.47;;;19.80;58.60;;;;;;5070429;28;20056;-73
2021/01/26 11:52:50;;;;;;;8.38;4.93;;;19.10;59.00;;;;;;5071558;28;20380;-73
2021/01/26 11:55:22;;;;;;;6.40;4.93;;;18.50;59.90;;;;;;5071399;28;20028;-72
2021/01/26 11:57:49;;;;;;;6.03;4.30;;;17.90;61.60;;;;;;5052720;28;20051;-72
2021/01/26 12:00:18;;;;;;;10.85;4.82;;;17.50;61.90;;;;;;5071196;28;20021;-73
2021/01/26 12:02:47;;;;;;;7.63;5.20;;;16.90;62.80;;;;;;5071219;28;20024;-74
2021/01/26 12:05:14;;;;;;;10.40;6.43;;;16.70;64.00;;;;;;5071192;28;20036;-72
2021/01/26 12:07:40;;;;;;;10.15;6.10;;;16.50;64.70;;;;;;5071867;28;20031;-74
2021/01/26 12:10:06;;;;;;;9.18;6.25;;;16.30;65.20;;;;;;5072024;28;20100;-73
2021/01/26 12:12:32;;;;;;;13.20;5.63;;;16.10;64.70;;;;;;5071124;28;20025;-73
2021/01/26 12:14:58;;;;;;;7.13;5.30;;;15.90;65.80;;;;;;5071422;28;20025;-72
2021/01/26 12:17:24;;;;;;;8.65;5.72;;;15.70;66.80;;;;;;5069962;28;20082;-73
2021/01/26 12:19:50;;;;;;;7.47;5.13;;;15.40;67.10;;;;;;5063092;28;20381;-75
2021/01/26 12:22:16;;;;;;;7.70;5.18;;;15.10;67.20;;;;;;5053474;28;20028;-72
2021/01/26 12:24:41;;;;;;;8.77;5.72;;;14.80;68.10;;;;;;5054656;28;20024;-72
2021/01/26 12:27:07;;;;;;;9.90;5.85;;;14.50;69.00;;;;;;5054934;28;20107;-72
2021/01/26 12:29:34;;;;;;;11.38;5.93;;;14.30;69.40;;;;;;5059868;28;20074;-73
2021/01/26 12:31:59;;;;;;;9.65;5.03;;;14.00;70.00;;;;;;5071450;28;20016;-72
2021/01/26 12:34:25;;;;;;;6.43;4.90;;;13.90;70.60;;;;;;5070731;28;20498;-73
2021/01/26 12:36:52;;;;;;;8.68;4.93;;;13.70;71.00;;;;;;5052938;28;20132;-74
2021/01/26 12:39:17;;;;;;;9.15;5.97;;;13.50;70.80;;;;;;5070806;28;20024;-74
2021/01/26 12:41:43;;;;;;;7.20;5.53;;;13.30;71.40;;;;;;5070403;28;20375;-73
2021/01/26 12:44:09;;;;;;;10.60;6.40;;;13.30;72.80;;;;;;5070443;28;20017;-73
2021/01/26 12:46:36;;;;;;;8.90;6.45;;;13.20;72.60;;;;;;5070706;28;20389;-74
2021/01/26 12:49:01;;;;;;;11.75;7.38;;;13.00;72.70;;;;;;5070973;28;20028;-73
2021/01/26 12:51:27;;;;;;;9.68;6.90;;;13.00;74.00;;;;;;5070208;28;20485;-73
2021/01/26 12:53:53;;;;;;;12.13;7.32;;;12.90;74.70;;;;;;5070289;28;20035;-71
2021/01/26 12:56:19;;;;;;;16.05;7.75;;;12.80;74.70;;;;;;5070575;28;20142;-76
2021/01/26 12:58:44;;;;;;;10.95;7.40;;;12.90;75.10;;;;;;5069249;28;20574;-72
2021/01/26 13:01:11;;;;;;;17.85;6.63;;;12.80;75.60;;;;;;5069769;28;20024;-73
2021/01/26 13:03:37;;;;;;;8.30;5.63;;;12.70;76.20;;;;;;5068376;28;20039;-73
2021/01/26 13:06:03;;;;;;;14.00;6.97;;;12.60;76.20;;;;;;5070585;28;20013;-72
2021/01/26 13:08:29;;;;;;;8.13;5.47;;;12.40;77.00;;;;;;5060696;28;20123;-72
2021/01/26 13:10:55;;;;;;;10.80;4.85;;;12.20;76.90;;;;;;5069560;28;20107;-73
2021/01/26 13:13:21;;;;;;;9.13;5.90;;;12.10;77.20;;;;;;5069514;28;20032;-71
2021/01/26 13:15:46;;;;;;;8.75;5.70;;;11.90;78.20;;;;;;5051946;28;20024;-75
2021/01/26 13:18:12;;;;;;;10.57;6.35;;;11.90;78.50;;;;;;5069893;28;20482;-71
2021/01/26 13:20:39;;;;;;;9.77;5.55;;;11.80;78.40;;;;;;5061425;28;20555;-72
2021/01/26 13:23:04;;;;;;;19.00;5.68;;;11.80;79.30;;;;;;5056146;28;20443;-74